Terminal Aerodrome Forecast
Issued by NWS Jackson, KY

Home | Current Version | Previous Version | Text Only | Print | Product List | Glossary On
Versions: 1 2 3 4 5 6 7 8 9 10 11 12 13
000
FTUS43 KJKL 221130
TAFLOZ
TAF
KLOZ 221130Z 2212/2312 VRB03KT P6SM FEW250
     FM221500 24008KT P6SM FEW045 SCT200
     FM230000 VRB04KT P6SM FEW060 FEW200=

USA.gov is the U.S. government's official web portal to all federal, state and local government web resources and services.